Cyrus, Kentucky
Current Conditions -  °F | °C
As of 6:53 PM on Saturday 25 Oct 2014 (Local Time) from KJKL Reporting Station
Clear Clear  
Wind Chill: 63°   Ceiling: Unl
Heat Index: 63°   Visibility: 10mi
Dew Point: 52°   Wind: 0mph
Humidity: 67%   Direction: NA
Pressure: 29.98"   Gusts: NA
Location:  37.7261°N, 83.0786°W
Report Text: KJKL 252253Z AUTO 00000KT 10SM CLR 17/11 A2998 RMK AO2 SLP150 T01720111
Loading
Personal Weather Stations






























Interactive Weather Map
Tropical Storm Tracking
New forecast layout! Learn more

10-Day Weather Forecast

Advertisements
Track Severe Weather on mobile